createdAt,value
2022-09-03T01:00:07.795Z,88.11
2022-09-03T01:01:19.524Z,87.45
2022-09-03T01:02:28.759Z,88.48
2022-09-03T01:03:45.381Z,87.28
2022-09-03T01:05:02.987Z,86.19
2022-09-03T01:06:18.926Z,85.53
2022-09-03T01:07:34.278Z,84.95
2022-09-03T01:08:57.780Z,84.52
2022-09-03T01:10:15.994Z,83.46
2022-09-03T01:11:27.595Z,83.24
2022-09-03T01:12:41.518Z,83.42
2022-09-03T01:13:50.081Z,83.58
2022-09-03T01:15:07.510Z,83.70
2022-09-03T01:16:22.245Z,83.82
2022-09-03T01:17:39.794Z,82.77
2022-09-03T01:18:53.321Z,83.81
2022-09-03T01:20:20.958Z,84.24
2022-09-03T01:21:43.813Z,83.50
2022-09-03T01:23:28.659Z,83.86
2022-09-03T01:25:10.884Z,84.23
2022-09-03T01:26:33.822Z,84.43
2022-09-03T01:27:48.693Z,83.95
2022-09-03T01:29:03.085Z,83.97
2022-09-03T01:30:10.540Z,84.20
2022-09-03T01:31:24.366Z,84.38
2022-09-03T01:32:40.107Z,85.21
2022-09-03T01:33:50.602Z,84.99
2022-09-03T01:35:04.136Z,85.07
2022-09-03T01:36:13.167Z,85.02
2022-09-03T01:37:28.139Z,84.08
2022-09-03T01:38:42.858Z,84.03
2022-09-03T01:39:58.699Z,84.72
2022-09-03T01:41:26.681Z,83.92
2022-09-03T01:42:43.115Z,81.39
2022-09-03T01:43:54.833Z,81.72
2022-09-03T01:45:21.625Z,82.38
2022-09-03T01:46:26.128Z,81.84
2022-09-03T01:47:41.010Z,80.96
2022-09-03T01:48:49.760Z,80.70
2022-09-03T01:50:05.773Z,80.77
2022-09-03T01:51:19.995Z,81.03
2022-09-03T01:52:38.987Z,81.30
2022-09-03T01:54:02.028Z,80.65
2022-09-03T01:55:22.841Z,80.33
2022-09-03T01:56:35.973Z,80.33
2022-09-03T01:57:56.265Z,80.12
2022-09-03T01:59:07.289Z,79.88
2022-09-03T02:00:13.962Z,80.15
2022-09-03T02:01:26.785Z,80.17
2022-09-03T02:02:33.401Z,79.85
2022-09-03T02:03:40.817Z,79.86
2022-09-03T02:04:57.350Z,80.84
2022-09-03T02:06:03.893Z,80.22
2022-09-03T02:07:06.745Z,80.66
2022-09-03T02:08:13.461Z,80.66
2022-09-03T02:09:15.550Z,80.34
2022-09-03T02:10:22.484Z,79.81
2022-09-03T02:11:24.916Z,80.00
2022-09-03T02:12:33.800Z,79.82
2022-09-03T02:13:39.823Z,79.42
2022-09-03T02:14:45.181Z,79.41
2022-09-03T02:15:50.546Z,80.11
2022-09-03T02:17:00.521Z,79.94
2022-09-03T02:18:06.334Z,79.19
2022-09-03T02:19:14.804Z,79.39
2022-09-03T02:20:20.976Z,79.59
2022-09-03T02:21:27.372Z,80.17
2022-09-03T02:22:29.465Z,81.12
2022-09-03T02:23:34.130Z,78.38
2022-09-03T02:24:36.519Z,78.75
2022-09-03T02:25:44.368Z,78.28
2022-09-03T02:26:46.991Z,79.23
2022-09-03T02:27:53.465Z,79.32
2022-09-03T02:28:57.071Z,79.57
2022-09-03T02:30:03.002Z,79.69
2022-09-03T02:31:05.591Z,79.29
2022-09-03T02:32:15.009Z,79.61
2022-09-03T02:33:17.309Z,79.10
2022-09-03T02:34:21.938Z,79.22
2022-09-03T02:35:23.973Z,78.52
2022-09-03T02:36:32.550Z,78.94
2022-09-03T02:37:35.074Z,78.60
2022-09-03T02:38:39.846Z,78.55
2022-09-03T02:39:42.435Z,79.33
2022-09-03T02:40:47.262Z,79.36
2022-09-03T02:41:54.989Z,79.66
2022-09-03T02:42:59.728Z,79.05
2022-09-03T02:44:06.612Z,79.81
2022-09-03T02:45:22.634Z,80.89
2022-09-03T02:46:32.640Z,80.98
2022-09-03T02:47:39.523Z,81.43
2022-09-03T02:48:44.308Z,81.25
2022-09-03T02:49:46.958Z,82.02
2022-09-03T02:50:51.765Z,82.41
2022-09-03T02:51:58.558Z,82.35
2022-09-03T02:53:03.173Z,82.19
2022-09-03T02:54:05.734Z,81.91
2022-09-03T02:55:11.434Z,81.40
2022-09-03T02:56:13.945Z,80.70
2022-09-03T02:57:23.851Z,81.00
2022-09-03T02:58:31.669Z,81.08
2022-09-03T02:59:36.455Z,82.24
2022-09-03T03:00:38.962Z,81.74
2022-09-03T03:01:43.569Z,81.33
2022-09-03T03:02:52.531Z,80.89
2022-09-03T03:03:57.206Z,79.78
2022-09-03T03:04:59.435Z,79.43
2022-09-03T03:06:06.798Z,78.45
2022-09-03T03:07:08.839Z,79.15
2022-09-03T03:08:15.342Z,80.27
2022-09-03T03:09:17.525Z,81.04
2022-09-03T03:10:22.165Z,82.09
2022-09-03T03:11:26.417Z,81.68
2022-09-03T03:12:31.459Z,82.06
2022-09-03T03:13:34.291Z,81.46
2022-09-03T03:14:41.256Z,82.04
2022-09-03T03:15:44.365Z,82.44
2022-09-03T03:16:49.048Z,83.08
2022-09-03T03:17:56.202Z,84.03
2022-09-03T03:19:00.936Z,84.40
2022-09-03T03:20:04.014Z,84.21
2022-09-03T03:21:10.001Z,83.71
2022-09-03T03:22:12.052Z,84.00
2022-09-03T03:23:16.888Z,85.26
2022-09-03T03:24:19.044Z,86.37
2022-09-03T03:25:23.729Z,86.61
2022-09-03T03:26:25.755Z,86.88
2022-09-03T03:27:32.516Z,88.19
2022-09-03T03:28:35.001Z,88.88
2022-09-03T03:29:39.689Z,88.69
2022-09-03T03:30:43.129Z,89.30
2022-09-03T03:31:47.826Z,88.80
2022-09-03T03:32:50.128Z,89.42
2022-09-03T03:33:59.199Z,89.30
2022-09-03T03:35:01.196Z,90.16
2022-09-03T03:36:09.866Z,90.07
2022-09-03T03:37:14.767Z,89.51
2022-09-03T03:38:16.820Z,88.35
2022-09-03T03:39:21.409Z,88.52
2022-09-03T03:40:23.500Z,89.40
2022-09-03T03:41:34.472Z,89.05
2022-09-03T03:42:36.640Z,88.92
2022-09-03T03:43:41.490Z,89.09
2022-09-03T03:44:44.092Z,88.87
2022-09-03T03:45:59.560Z,89.20
2022-09-03T03:47:02.450Z,89.16
2022-09-03T03:48:07.162Z,89.97
2022-09-03T03:49:12.062Z,91.13
2022-09-03T03:50:17.018Z,92.19
2022-09-03T03:51:19.813Z,93.85
2022-09-03T03:52:24.378Z,93.12
2022-09-03T03:53:26.387Z,92.77
2022-09-03T03:54:31.445Z,92.04
2022-09-03T03:55:35.330Z,90.79
2022-09-03T03:56:40.099Z,90.36
2022-09-03T03:57:42.170Z,90.66
2022-09-03T03:58:48.536Z,91.30
2022-09-03T03:59:50.963Z,90.59
2022-09-03T04:00:56.104Z,90.49
2022-09-03T04:01:58.329Z,90.75
2022-09-03T04:03:03.049Z,91.11
2022-09-03T04:04:08.170Z,91.42
2022-09-03T04:05:15.056Z,91.14
2022-09-03T04:06:22.285Z,92.00
2022-09-03T04:07:24.333Z,92.11
2022-09-03T04:08:29.464Z,92.06
2022-09-03T04:09:31.714Z,92.33
2022-09-03T04:10:36.335Z,92.63
2022-09-03T04:11:39.138Z,93.35
2022-09-03T04:12:43.875Z,94.11
2022-09-03T04:13:47.052Z,95.77
2022-09-03T04:14:51.638Z,97.76
2022-09-03T04:16:01.079Z,98.75
2022-09-03T04:17:05.811Z,99.06
2022-09-03T04:18:08.663Z,98.94
2022-09-03T04:19:13.503Z,99.46
2022-09-03T04:20:18.158Z,99.09
2022-09-03T04:21:24.814Z,99.13
2022-09-03T04:22:29.693Z,99.13
2022-09-03T04:23:35.229Z,99.06
2022-09-03T04:24:39.863Z,98.96
2022-09-03T04:25:42.373Z,98.95
2022-09-03T04:26:47.362Z,98.81
2022-09-03T04:27:52.627Z,98.30
2022-09-03T04:28:57.591Z,98.04
2022-09-03T04:30:00.144Z,97.61
2022-09-03T04:31:08.461Z,97.24
2022-09-03T04:32:26.070Z,97.58
2022-09-03T04:33:30.938Z,97.30
2022-09-03T04:34:33.016Z,97.34
2022-09-03T04:35:41.141Z,96.99
2022-09-03T04:36:43.233Z,96.88
2022-09-03T04:37:47.864Z,97.08
2022-09-03T04:38:51.917Z,97.44
2022-09-03T04:39:56.797Z,97.86
2022-09-03T04:40:59.946Z,97.47
2022-09-03T04:42:04.661Z,97.53
2022-09-03T04:43:06.843Z,98.43
2022-09-03T04:44:11.458Z,98.62
2022-09-03T04:45:18.695Z,99.22
2022-09-03T04:46:25.043Z,98.73
2022-09-03T04:47:28.274Z,98.69
2022-09-03T04:48:35.253Z,99.82
2022-09-03T04:49:40.301Z,100.00
2022-09-03T04:50:47.478Z,100.00
2022-09-03T04:51:50.253Z,100.00
2022-09-03T04:52:56.401Z,100.00
2022-09-03T04:54:02.742Z,100.00
2022-09-03T04:55:06.345Z,99.40
2022-09-03T04:56:16.055Z,98.94
2022-09-03T04:57:18.132Z,100.00
2022-09-03T04:58:22.808Z,100.00
2022-09-03T04:59:25.307Z,99.99
2022-09-03T05:00:30.271Z,98.87
2022-09-03T05:01:34.337Z,98.50
2022-09-03T05:02:40.026Z,97.94
2022-09-03T05:03:42.189Z,98.86
2022-09-03T05:04:48.451Z,98.66
2022-09-03T05:05:57.005Z,98.97
2022-09-03T05:07:01.656Z,99.06
2022-09-03T05:08:04.375Z,98.42
2022-09-03T05:09:09.584Z,97.17
2022-09-03T05:10:16.396Z,96.44
2022-09-03T05:11:21.588Z,96.93
2022-09-03T05:12:23.721Z,97.72
2022-09-03T05:13:28.695Z,98.43
2022-09-03T05:14:33.305Z,97.78
2022-09-03T05:15:35.540Z,97.37
2022-09-03T05:16:40.332Z,97.02
2022-09-03T05:17:42.441Z,96.89
2022-09-03T05:18:47.928Z,96.30
2022-09-03T05:19:50.055Z,96.47
2022-09-03T05:21:04.490Z,96.77
2022-09-03T05:22:08.171Z,96.82
2022-09-03T05:23:13.077Z,96.98
2022-09-03T05:24:15.547Z,96.93
2022-09-03T05:25:20.190Z,96.57
2022-09-03T05:26:24.876Z,96.42
2022-09-03T05:27:29.535Z,95.36
2022-09-03T05:28:31.882Z,95.18
2022-09-03T05:29:36.668Z,95.37
2022-09-03T05:30:38.750Z,95.37
2022-09-03T05:31:43.390Z,94.96
2022-09-03T05:32:45.442Z,94.40
2022-09-03T05:33:53.375Z,94.69
2022-09-03T05:34:55.839Z,94.20
2022-09-03T05:36:08.820Z,94.07
2022-09-03T05:37:11.822Z,94.78
2022-09-03T05:38:17.205Z,94.77
2022-09-03T05:39:19.296Z,94.17
2022-09-03T05:40:24.053Z,93.96
2022-09-03T05:41:27.461Z,94.51
2022-09-03T05:42:32.579Z,95.04
2022-09-03T05:43:35.298Z,94.64
2022-09-03T05:44:39.944Z,94.86
2022-09-03T05:45:42.296Z,95.86
2022-09-03T05:46:47.274Z,95.92
2022-09-03T05:47:49.457Z,95.30
2022-09-03T05:48:54.368Z,93.86
2022-09-03T05:49:56.418Z,93.59
2022-09-03T05:51:08.823Z,94.11
2022-09-03T05:52:13.594Z,94.83
2022-09-03T05:53:17.584Z,96.08
2022-09-03T05:54:22.238Z,94.95
2022-09-03T05:55:24.315Z,94.25
2022-09-03T05:56:30.857Z,94.34
2022-09-03T05:57:33.429Z,93.82
2022-09-03T05:58:43.600Z,93.91
2022-09-03T05:59:48.275Z,94.49
2022-09-03T06:00:50.343Z,95.01
2022-09-03T06:01:59.395Z,93.91
2022-09-03T06:03:02.354Z,93.92
2022-09-03T06:04:08.716Z,93.28
2022-09-03T06:05:10.780Z,92.26
2022-09-03T06:06:18.590Z,91.63
2022-09-03T06:07:21.476Z,91.10
2022-09-03T06:08:26.566Z,89.50
2022-09-03T06:09:31.226Z,89.18
2022-09-03T06:10:40.715Z,89.80
2022-09-03T06:11:46.192Z,89.23
2022-09-03T06:12:51.889Z,88.79
2022-09-03T06:13:56.850Z,88.35
2022-09-03T06:14:59.121Z,88.12
2022-09-03T06:16:06.035Z,88.41
2022-09-03T06:17:11.334Z,86.68
2022-09-03T06:18:16.130Z,86.23
2022-09-03T06:19:18.896Z,85.29
2022-09-03T06:20:27.792Z,85.44
2022-09-03T06:21:35.898Z,85.52
2022-09-03T06:22:37.951Z,85.75
2022-09-03T06:23:45.784Z,85.29
2022-09-03T06:24:51.383Z,84.78
2022-09-03T06:26:05.082Z,83.98
2022-09-03T06:27:10.249Z,83.65
2022-09-03T06:28:12.391Z,83.04
2022-09-03T06:29:18.546Z,83.57
2022-09-03T06:30:20.793Z,82.80
2022-09-03T06:31:26.083Z,82.53
2022-09-03T06:32:29.440Z,82.56
2022-09-03T06:33:36.019Z,82.55
2022-09-03T06:34:40.818Z,82.96
2022-09-03T06:35:43.404Z,81.86
2022-09-03T06:36:51.308Z,82.15
2022-09-03T06:37:56.585Z,81.69
2022-09-03T06:39:02.350Z,81.37
2022-09-03T06:40:05.002Z,81.43
2022-09-03T06:41:11.218Z,81.06
2022-09-03T06:42:13.474Z,81.96
2022-09-03T06:43:18.450Z,80.59
2022-09-03T06:44:20.688Z,80.95
2022-09-03T06:45:25.387Z,81.28
2022-09-03T06:46:30.032Z,81.71
2022-09-03T06:47:35.127Z,82.50
2022-09-03T06:48:40.857Z,82.45
2022-09-03T06:49:45.513Z,82.32
2022-09-03T06:50:54.294Z,81.99
2022-09-03T06:52:01.456Z,81.51
2022-09-03T06:53:03.544Z,82.01
2022-09-03T06:54:10.698Z,82.63
2022-09-03T06:55:12.836Z,82.97
2022-09-03T06:56:19.808Z,83.82
2022-09-03T06:57:24.441Z,86.30
2022-09-03T06:58:30.157Z,88.07
2022-09-03T06:59:34.843Z,88.55
2022-09-03T07:00:37.002Z,89.52
2022-09-03T07:01:45.291Z,88.72
2022-09-03T07:02:48.870Z,89.44
2022-09-03T07:03:58.161Z,90.00
2022-09-03T07:05:00.547Z,90.00
2022-09-03T07:06:05.616Z,88.84
2022-09-03T07:07:13.382Z,89.48
2022-09-03T07:08:18.046Z,87.98
2022-09-03T07:09:22.721Z,87.48
2022-09-03T07:10:26.158Z,87.41
2022-09-03T07:11:35.919Z,86.65
2022-09-03T07:12:37.983Z,86.27
2022-09-03T07:13:44.327Z,84.54
2022-09-03T07:14:51.184Z,83.82
2022-09-03T07:16:00.264Z,83.73
2022-09-03T07:17:05.080Z,83.24
2022-09-03T07:18:07.154Z,84.05
2022-09-03T07:19:13.513Z,82.01
2022-09-03T07:20:15.785Z,83.83
2022-09-03T07:21:22.465Z,83.20
2022-09-03T07:22:31.733Z,82.60
2022-09-03T07:23:37.155Z,82.75
2022-09-03T07:24:46.939Z,81.37
2022-09-03T07:25:53.784Z,81.08
2022-09-03T07:26:58.421Z,81.15
2022-09-03T07:28:00.564Z,81.65
2022-09-03T07:29:05.815Z,80.97
2022-09-03T07:30:10.460Z,80.74
2022-09-03T07:31:19.566Z,81.87
2022-09-03T07:32:24.217Z,80.42
2022-09-03T07:33:26.397Z,82.66
2022-09-03T07:34:31.691Z,82.65
2022-09-03T07:35:36.851Z,83.49
2022-09-03T07:36:43.367Z,81.31
2022-09-03T07:37:48.047Z,80.98
2022-09-03T07:38:53.034Z,80.48
2022-09-03T07:39:58.632Z,80.86
2022-09-03T07:41:02.081Z,81.78
2022-09-03T07:42:11.128Z,82.56
2022-09-03T07:43:13.398Z,82.80
2022-09-03T07:44:22.952Z,82.55
2022-09-03T07:45:25.116Z,82.97
2022-09-03T07:46:30.522Z,82.28
2022-09-03T07:47:34.722Z,82.38
2022-09-03T07:48:39.351Z,82.83
2022-09-03T07:49:41.407Z,82.44
2022-09-03T07:50:47.866Z,82.39
2022-09-03T07:51:52.453Z,82.65
2022-09-03T07:53:02.029Z,80.90
2022-09-03T07:54:10.189Z,80.98
2022-09-03T07:55:12.302Z,82.10
2022-09-03T07:56:18.088Z,81.46
2022-09-03T07:57:21.089Z,81.31
2022-09-03T07:58:26.118Z,81.48
2022-09-03T07:59:31.512Z,83.01
2022-09-03T08:00:34.191Z,81.98
2022-09-03T08:01:41.701Z,84.78
2022-09-03T08:02:46.223Z,82.16
2022-09-03T08:03:53.274Z,82.45
2022-09-03T08:04:55.364Z,81.89
2022-09-03T08:06:04.133Z,80.44
2022-09-03T08:07:08.764Z,80.53
2022-09-03T08:08:15.508Z,79.65
2022-09-03T08:09:21.075Z,79.30
2022-09-03T08:10:24.772Z,78.81
2022-09-03T08:11:31.544Z,78.17
2022-09-03T08:12:33.812Z,79.49
2022-09-03T08:13:38.746Z,77.65
2022-09-03T08:14:40.792Z,77.99
2022-09-03T08:15:45.444Z,78.55
2022-09-03T08:16:48.182Z,76.48
2022-09-03T08:17:52.954Z,77.34
2022-09-03T08:18:55.035Z,76.90
2022-09-03T08:20:00.425Z,78.69
2022-09-03T08:21:02.469Z,81.07
2022-09-03T08:22:07.178Z,80.34
2022-09-03T08:23:09.240Z,82.11
2022-09-03T08:24:21.039Z,82.62
2022-09-03T08:25:23.121Z,83.02
2022-09-03T08:26:27.737Z,83.84
2022-09-03T08:27:30.237Z,84.03
2022-09-03T08:28:39.266Z,83.10
2022-09-03T08:29:43.931Z,83.27
2022-09-03T08:30:45.958Z,82.95
2022-09-03T08:31:51.332Z,85.19
2022-09-03T08:32:53.766Z,84.72
2022-09-03T08:33:59.769Z,84.60
2022-09-03T08:35:02.145Z,83.95
2022-09-03T08:36:08.397Z,85.55
2022-09-03T08:37:13.255Z,83.93
2022-09-03T08:38:17.857Z,83.75
2022-09-03T08:39:25.175Z,81.25
2022-09-03T08:40:27.336Z,80.21
2022-09-03T08:41:39.204Z,78.17
2022-09-03T08:42:50.446Z,78.40
2022-09-03T08:44:12.588Z,75.64
2022-09-03T08:45:17.826Z,74.45
2022-09-03T08:46:26.139Z,73.23
2022-09-03T08:47:37.061Z,71.28
2022-09-03T08:48:39.631Z,70.91
2022-09-03T08:49:49.974Z,69.16
2022-09-03T08:51:00.098Z,67.70
2022-09-03T08:52:08.916Z,66.28
2022-09-03T08:53:18.780Z,67.24
2022-09-03T08:54:27.564Z,69.12
2022-09-03T08:55:42.834Z,67.50
2022-09-03T08:56:46.432Z,69.72
2022-09-03T08:57:53.981Z,67.68
2022-09-03T08:58:56.410Z,66.50
2022-09-03T09:00:01.224Z,68.09
2022-09-03T09:01:13.777Z,66.73
2022-09-03T09:02:29.710Z,65.81
2022-09-03T09:03:42.650Z,64.70
2022-09-03T09:05:01.894Z,62.17
2022-09-03T09:06:11.634Z,63.95
2022-09-03T09:07:23.387Z,62.39
2022-09-03T09:08:35.543Z,65.36
2022-09-03T09:09:50.085Z,62.39
2022-09-03T09:11:02.678Z,59.19
2022-09-03T09:12:25.041Z,59.77
2022-09-03T09:13:41.257Z,58.53
2022-09-03T09:14:53.594Z,60.40
2022-09-03T09:16:09.637Z,62.00
2022-09-03T09:17:39.462Z,64.65
2022-09-03T09:18:59.470Z,65.95
2022-09-03T09:20:13.869Z,67.66
2022-09-03T09:21:25.137Z,69.73
2022-09-03T09:22:38.431Z,69.55
2022-09-03T09:23:44.766Z,69.92
2022-09-03T09:24:57.518Z,71.78
2022-09-03T09:26:02.963Z,69.85
2022-09-03T09:27:12.817Z,70.70
2022-09-03T09:28:22.711Z,70.75
2022-09-03T09:29:27.749Z,70.98
2022-09-03T09:30:35.979Z,73.43
2022-09-03T09:31:38.468Z,73.77
2022-09-03T09:32:43.142Z,73.60
2022-09-03T09:33:45.667Z,70.48
2022-09-03T09:34:52.544Z,71.86
2022-09-03T09:35:54.919Z,68.38
2022-09-03T09:37:01.786Z,68.71
2022-09-03T09:38:03.859Z,69.45
2022-09-03T09:39:11.768Z,69.08
2022-09-03T09:40:25.754Z,67.61
2022-09-03T09:41:30.476Z,66.69
2022-09-03T09:42:32.658Z,64.06
2022-09-03T09:43:38.416Z,64.85
2022-09-03T09:44:42.799Z,62.75
2022-09-03T09:45:49.497Z,64.22
2022-09-03T09:46:54.827Z,64.37
2022-09-03T09:47:59.960Z,62.51
2022-09-03T09:49:05.075Z,62.10
2022-09-03T09:50:25.097Z,61.84
2022-09-03T09:51:33.693Z,60.15
2022-09-03T09:52:35.868Z,58.79
2022-09-03T09:53:40.682Z,55.46
2022-09-03T09:54:45.979Z,55.52
2022-09-03T09:55:58.852Z,51.53
2022-09-03T09:57:06.375Z,50.09
2022-09-03T09:58:14.289Z,50.18
2022-09-03T09:59:22.411Z,48.26
2022-09-03T10:00:24.517Z,46.59
2022-09-03T10:01:30.520Z,46.60
2022-09-03T10:02:35.590Z,46.23
2022-09-03T10:03:50.721Z,45.73
2022-09-03T10:04:53.021Z,44.03
2022-09-03T10:06:26.552Z,42.57
2022-09-03T10:07:31.448Z,43.69
2022-09-03T10:08:36.081Z,43.66
2022-09-03T10:09:40.736Z,43.88
2022-09-03T10:10:49.809Z,42.32
2022-09-03T10:12:11.137Z,43.35
2022-09-03T10:13:19.707Z,42.34
2022-09-03T10:14:26.770Z,41.52
2022-09-03T10:15:38.636Z,43.80
2022-09-03T10:16:49.148Z,41.07
2022-09-03T10:18:03.908Z,40.22
2022-09-03T10:19:11.643Z,39.21
2022-09-03T10:20:31.142Z,38.13
2022-09-03T10:21:44.045Z,37.99
2022-09-03T10:22:56.221Z,38.74
2022-09-03T10:24:08.993Z,38.14
2022-09-03T10:25:11.084Z,38.96
2022-09-03T10:26:19.537Z,38.48
2022-09-03T10:27:24.225Z,37.14
2022-09-03T10:28:33.398Z,36.26
2022-09-03T10:29:36.087Z,38.76
2022-09-03T10:30:56.541Z,39.69
2022-09-03T10:32:10.247Z,37.57
2022-09-03T10:33:20.351Z,38.97
2022-09-03T10:34:37.099Z,37.87
2022-09-03T10:35:49.266Z,39.50
2022-09-03T10:37:03.331Z,38.78
2022-09-03T10:38:11.290Z,37.84
2022-09-03T10:39:24.545Z,36.87
2022-09-03T10:40:35.096Z,36.59
2022-09-03T10:41:56.012Z,39.39
2022-09-03T10:43:16.984Z,40.66
2022-09-03T10:44:48.910Z,40.21
2022-09-03T10:46:01.286Z,40.64
2022-09-03T10:47:23.000Z,39.46
2022-09-03T10:48:45.646Z,38.67
2022-09-03T10:50:01.855Z,38.27
2022-09-03T10:51:08.005Z,37.01
2022-09-03T10:52:19.889Z,36.15
2022-09-03T10:53:34.766Z,35.87
2022-09-03T10:54:52.520Z,34.87
2022-09-03T10:56:00.722Z,35.01
2022-09-03T10:57:15.727Z,34.29
2022-09-03T10:58:42.199Z,36.10
2022-09-03T11:00:04.384Z,36.79
2022-09-03T11:01:14.878Z,36.49
2022-09-03T11:02:32.478Z,36.62
2022-09-03T11:04:03.347Z,36.70
2022-09-03T11:05:09.483Z,36.63
2022-09-03T11:06:19.949Z,36.05
2022-09-03T11:07:25.870Z,35.75
2022-09-03T11:08:34.514Z,34.57
2022-09-03T11:09:43.516Z,34.75
2022-09-03T11:10:50.684Z,36.01
2022-09-03T11:12:00.292Z,37.34
2022-09-03T11:13:06.721Z,36.30
2022-09-03T11:14:21.075Z,36.74
2022-09-03T11:15:28.773Z,35.28
2022-09-03T11:16:36.792Z,36.09
2022-09-03T11:17:43.000Z,34.91
2022-09-03T11:18:52.527Z,37.12
2022-09-03T11:19:59.601Z,38.16
2022-09-03T11:21:12.109Z,38.37
2022-09-03T11:22:20.891Z,37.95
2022-09-03T11:23:28.053Z,40.88
2022-09-03T11:24:37.403Z,41.15
2022-09-03T11:25:44.281Z,40.51
2022-09-03T11:26:55.574Z,40.53
2022-09-03T11:28:11.811Z,39.79
2022-09-03T11:29:24.113Z,41.36
2022-09-03T11:30:32.744Z,41.95
2022-09-03T11:31:48.961Z,39.30
2022-09-03T11:32:56.081Z,39.80
2022-09-03T11:34:08.314Z,40.28
2022-09-03T11:35:16.207Z,40.99
2022-09-03T11:36:31.600Z,43.61
2022-09-03T11:37:34.557Z,43.42
2022-09-03T11:41:15.886Z,41.57
2022-09-03T11:42:31.069Z,40.88
2022-09-03T11:43:37.071Z,39.64
2022-09-03T11:44:51.365Z,39.64
2022-09-03T11:46:07.024Z,40.69
2022-09-03T11:47:23.979Z,40.78
2022-09-03T11:48:39.098Z,40.42
2022-09-03T11:49:50.904Z,41.04
2022-09-03T11:50:54.376Z,42.09
2022-09-03T11:52:03.569Z,43.47
2022-09-03T11:53:11.019Z,44.38
2022-09-03T11:54:29.423Z,42.73
2022-09-03T11:55:43.352Z,44.47
2022-09-03T11:56:50.677Z,42.57
2022-09-03T11:57:55.458Z,42.60
2022-09-03T11:59:15.949Z,43.92
2022-09-03T12:00:25.244Z,43.65
2022-09-03T12:01:28.500Z,44.24
2022-09-03T12:02:36.263Z,46.79
2022-09-03T12:03:43.798Z,47.57
2022-09-03T12:04:54.736Z,47.71
2022-09-03T12:06:19.996Z,47.50
2022-09-03T12:07:46.042Z,48.41
2022-09-03T12:09:08.785Z,49.90
2022-09-03T12:10:26.880Z,51.71
2022-09-03T12:11:44.374Z,52.27
2022-09-03T12:12:58.502Z,54.54
2022-09-03T12:14:13.894Z,55.57
2022-09-03T12:15:34.680Z,54.98
2022-09-03T12:16:55.611Z,53.96
2022-09-03T12:18:14.530Z,53.96
2022-09-03T12:19:28.020Z,54.50
2022-09-03T12:20:30.359Z,54.56
2022-09-03T12:21:41.353Z,54.68
2022-09-03T12:22:43.718Z,55.20
2022-09-03T12:23:50.562Z,54.73
2022-09-03T12:24:52.804Z,55.51
2022-09-03T12:25:57.733Z,55.62
2022-09-03T12:27:05.796Z,56.60
2022-09-03T12:28:13.511Z,56.51
2022-09-03T12:29:27.995Z,57.68
2022-09-03T12:30:33.132Z,57.07
2022-09-03T12:31:50.108Z,57.88
2022-09-03T12:33:05.026Z,59.29
2022-09-03T12:34:15.243Z,62.37
2022-09-03T12:36:46.046Z,62.75
2022-09-03T12:38:08.792Z,63.31
2022-09-03T12:39:17.434Z,64.72
2022-09-03T12:40:21.651Z,65.57
2022-09-03T12:41:31.211Z,66.72
2022-09-03T12:42:34.526Z,67.62
2022-09-03T12:43:39.745Z,67.94
2022-09-03T12:44:43.126Z,68.75
2022-09-03T12:48:44.155Z,70.73
2022-09-03T12:49:47.737Z,71.81
2022-09-03T12:52:32.534Z,73.88
2022-09-03T12:53:34.804Z,74.70
2022-09-03T12:54:45.786Z,75.69
2022-09-03T12:55:55.200Z,76.45
2022-09-03T12:57:02.150Z,76.92
2022-09-03T12:58:14.042Z,77.15
2022-09-03T12:59:19.792Z,77.29
2022-09-03T13:00:25.477Z,78.31
2022-09-03T13:01:33.867Z,79.19
2022-09-03T13:02:46.412Z,78.80
2022-09-03T13:03:54.861Z,79.32
2022-09-03T13:05:00.022Z,80.35
2022-09-03T13:06:08.228Z,80.90
2022-09-03T13:07:19.248Z,83.72
2022-09-03T13:08:23.788Z,84.20
2022-09-03T13:09:32.256Z,86.97
2022-09-03T13:10:39.031Z,91.49
2022-09-03T13:11:45.269Z,98.90
2022-09-03T13:12:53.001Z,100.00
2022-09-03T13:14:05.610Z,100.00
2022-09-03T13:15:12.354Z,100.00
2022-09-03T13:16:48.413Z,100.00
2022-09-03T13:18:16.163Z,100.00
2022-09-03T13:19:25.949Z,100.00
2022-09-03T13:20:41.480Z,100.00
2022-09-03T13:21:51.427Z,100.00
2022-09-03T13:23:10.908Z,100.00
2022-09-03T13:24:40.854Z,100.00
2022-09-03T13:25:56.845Z,100.00
2022-09-03T13:27:08.484Z,100.00
2022-09-03T13:28:27.817Z,100.00
2022-09-03T13:29:52.670Z,100.00
2022-09-03T13:31:02.538Z,100.00
2022-09-03T13:32:17.117Z,100.00
2022-09-03T13:33:30.299Z,100.00
2022-09-03T13:34:36.044Z,100.00
2022-09-03T13:35:48.277Z,100.00
2022-09-03T13:36:54.616Z,100.00
2022-09-03T13:38:06.092Z,100.00
2022-09-03T13:39:20.635Z,100.00
2022-09-03T13:40:30.686Z,100.00
2022-09-03T13:41:38.764Z,100.00
2022-09-03T13:42:47.573Z,100.00
2022-09-03T13:44:05.353Z,100.00
2022-09-03T13:45:21.073Z,100.00
2022-09-03T13:46:31.432Z,100.00
2022-09-03T13:48:02.454Z,100.00
2022-09-03T13:49:32.953Z,100.00
2022-09-03T13:50:45.568Z,100.00
2022-09-03T13:51:52.144Z,100.00
2022-09-03T13:53:04.660Z,100.00
2022-09-03T13:54:26.316Z,100.00
2022-09-03T13:55:49.030Z,100.00
2022-09-03T13:56:58.471Z,100.00
2022-09-03T13:58:11.003Z,100.00
2022-09-03T13:59:20.511Z,100.00
2022-09-03T14:00:33.041Z,100.00
2022-09-03T14:01:52.296Z,100.00
2022-09-03T14:03:01.330Z,100.00
2022-09-03T14:04:11.666Z,100.00
2022-09-03T14:05:23.891Z,100.00
2022-09-03T14:06:45.210Z,100.00
2022-09-03T14:08:00.266Z,100.00
2022-09-03T14:09:14.806Z,100.00
2022-09-03T14:10:25.433Z,100.00
2022-09-03T14:11:35.493Z,100.00
2022-09-03T14:12:45.782Z,100.00
2022-09-03T14:14:05.452Z,100.00
2022-09-03T14:15:16.111Z,100.00
2022-09-03T14:16:34.012Z,100.00
2022-09-03T14:17:47.074Z,100.00
2022-09-03T14:18:57.269Z,100.00
2022-09-03T14:20:09.397Z,100.00
2022-09-03T14:21:17.250Z,100.00
2022-09-03T14:22:30.497Z,100.00
2022-09-03T14:23:41.598Z,100.00
2022-09-03T14:24:51.963Z,100.00
2022-09-03T14:25:54.777Z,100.00
2022-09-03T14:27:02.060Z,100.00
2022-09-03T14:28:16.293Z,100.00
2022-09-03T14:29:25.952Z,100.00
2022-09-03T14:30:41.536Z,100.00
2022-09-03T14:32:18.176Z,100.00
2022-09-03T14:33:31.439Z,100.00
2022-09-03T14:34:45.913Z,100.00
2022-09-03T14:36:10.055Z,90.26
2022-09-03T14:37:41.077Z,90.54
2022-09-03T14:38:58.040Z,77.62
2022-09-03T14:40:15.606Z,72.78
2022-09-03T14:41:42.689Z,75.56
2022-09-03T14:42:59.575Z,81.27
2022-09-03T14:44:28.064Z,79.87
2022-09-03T14:46:03.576Z,93.61
2022-09-03T14:47:26.337Z,97.83
2022-09-03T14:48:54.573Z,96.34
2022-09-03T14:50:25.381Z,92.19
2022-09-03T14:51:55.820Z,90.99
2022-09-03T14:53:26.134Z,92.57
2022-09-03T14:54:39.176Z,88.95
2022-09-03T14:56:07.717Z,86.84
2022-09-03T14:57:29.361Z,91.53
2022-09-03T14:58:48.188Z,83.18
2022-09-03T15:00:08.097Z,75.86
2022-09-03T15:01:23.367Z,77.83
2022-09-03T15:02:57.883Z,78.10
2022-09-03T15:04:28.501Z,69.05
2022-09-03T15:05:48.216Z,67.24
2022-09-03T15:07:21.190Z,62.55
2022-09-03T15:08:57.342Z,62.14
2022-09-03T15:10:08.314Z,64.93
2022-09-03T15:11:20.083Z,69.31
2022-09-03T15:12:29.178Z,69.79
2022-09-03T15:13:38.642Z,79.99
2022-09-03T15:14:50.154Z,82.16
2022-09-03T15:16:07.640Z,74.09
2022-09-03T15:17:31.060Z,75.67
2022-09-03T15:18:53.878Z,81.49
2022-09-03T15:20:07.608Z,80.22
2022-09-03T15:21:27.161Z,81.07
2022-09-03T15:22:50.172Z,82.98
2022-09-03T15:24:08.274Z,87.45
2022-09-03T15:25:25.813Z,88.64
2022-09-03T15:26:57.408Z,91.41
2022-09-03T15:28:14.687Z,93.37
2022-09-03T15:29:46.240Z,96.68
2022-09-03T15:30:55.659Z,96.71
2022-09-03T15:32:09.759Z,99.29
2022-09-03T15:33:30.817Z,100.00
2022-09-03T15:34:49.910Z,99.75
2022-09-03T15:36:15.139Z,100.00
2022-09-03T15:37:21.646Z,100.00
2022-09-03T15:38:42.086Z,100.00
2022-09-03T15:39:49.408Z,99.13
2022-09-03T15:40:57.197Z,100.00
2022-09-03T15:42:04.465Z,98.98
2022-09-03T15:43:10.699Z,100.00
2022-09-03T15:44:19.836Z,100.00
2022-09-03T15:45:35.400Z,100.00
2022-09-03T15:46:53.151Z,100.00
2022-09-03T15:48:10.782Z,100.00
2022-09-03T15:49:35.364Z,96.99
2022-09-03T15:50:52.827Z,95.51
2022-09-03T15:52:14.679Z,92.86
2022-09-03T15:53:36.690Z,87.65
2022-09-03T15:54:49.358Z,81.84
2022-09-03T15:56:13.681Z,77.08
2022-09-03T15:58:08.051Z,71.83
2022-09-03T15:59:26.929Z,67.19